Terminal Aerodrome Forecast
Issued by NWS

Home | Current Version | Previous Version | Text Only | Print | Product List | Glossary On
Versions: 1 2 3 4 5 6 7 8 9 10 11 12 13 14 15 16 17 18
000
FTUS42 KMHX 201500 AAB
TAFOAJ
TAF AMD
KOAJ 201522Z 2015/2112 02005KT P6SM SCT040
     FM201800 VRB04KT P6SM VCTS BKN040CB
     FM210000 VRB02KT P6SM SCT200
     FM210600 VRB02KT 4SM BR SKC
      AMD LTD TO CLD VIS AND WIND=

USA.gov is the U.S. government's official web portal to all federal, state and local government web resources and services.